Time;durP1;ratioP1;P1;durP2;ratioP2;P2;SDS_P1;SDS_P2;PMS_P1;PMS_P2;Temp;Humidity;BMP_temperature;BMP_pressure;BME280_temperature;BME280_humidity;BME280_pressure;Samples;Min_cycle;Max_cycle;Signal;HPM_P1;HPM_P2
2021/11/14 00:00:18;;;;;;;8.25;3.90;;;;;;;;;;5048577;28;20151;-68
2021/11/14 00:02:47;;;;;;;7.63;3.40;;;;;;;;;;5046139;28;20496;-68
2021/11/14 00:05:33;;;;;;;9.55;3.78;;;;;;;;;;5047286;28;20052;-68
2021/11/14 00:08:02;;;;;;;7.07;3.63;;;;;;;;;;5049676;28;20047;-68
2021/11/14 00:10:33;;;;;;;5.75;3.63;;;;;;;;;;5047752;28;20045;-67
2021/11/14 00:13:01;;;;;;;9.80;4.03;;;;;;;;;;5044009;28;20118;-67
2021/11/14 00:15:29;;;;;;;7.22;3.78;;;;;;;;;;5049163;28;20037;-68
2021/11/14 00:17:58;;;;;;;6.20;3.53;;;;;;;;;;5050456;28;20095;-68
2021/11/14 00:20:26;;;;;;;6.88;3.22;;;;;;;;;;5048978;28;20076;-68
2021/11/14 00:22:55;;;;;;;7.35;3.70;;;;;;;;;;5048088;28;20044;-67
2021/11/14 00:25:24;;;;;;;10.15;4.50;;;;;;;;;;5047124;28;20432;-68
2021/11/14 00:27:54;;;;;;;6.72;3.50;;;;;;;;;;5047261;28;20068;-68
2021/11/14 00:30:22;;;;;;;6.50;3.67;;;;;;;;;;5045989;28;20536;-68
2021/11/14 00:32:52;;;;;;;9.23;4.15;;;;;;;;;;5047785;28;20052;-68
2021/11/14 00:35:21;;;;;;;8.80;3.47;;;;;;;;;;5045928;28;20500;-67
2021/11/14 00:37:49;;;;;;;6.70;3.33;;;;;;;;;;5045512;28;20080;-68
2021/11/14 00:40:23;;;;;;;7.93;3.63;;;;;;;;;;5048402;28;20163;-68
2021/11/14 00:42:51;;;;;;;7.07;3.85;;;;;;;;;;5045317;28;20053;-67
2021/11/14 00:45:21;;;;;;;8.68;4.13;;;;;;;;;;5046933;28;20076;-68
2021/11/14 00:47:49;;;;;;;6.20;3.40;;;;;;;;;;5046515;28;20076;-68
2021/11/14 00:50:18;;;;;;;8.13;3.55;;;;;;;;;;5049180;28;20099;-68
2021/11/14 00:52:46;;;;;;;7.22;3.65;;;;;;;;;;5044409;28;20072;-67
2021/11/14 00:55:16;;;;;;;6.47;3.38;;;;;;;;;;5042899;28;20514;-68
2021/11/14 00:57:45;;;;;;;6.55;3.13;;;;;;;;;;5045225;28;20048;-68
2021/11/14 01:00:15;;;;;;;8.02;3.70;;;;;;;;;;5048619;28;20125;-68
2021/11/14 01:02:45;;;;;;;8.00;3.80;;;;;;;;;;5046099;28;20087;-67
2021/11/14 01:05:14;;;;;;;6.80;3.78;;;;;;;;;;5047444;28;20339;-67
2021/11/14 01:07:43;;;;;;;7.05;3.50;;;;;;;;;;5045724;28;20128;-68
2021/11/14 01:10:13;;;;;;;6.00;3.60;;;;;;;;;;5048607;28;20142;-68
2021/11/14 01:12:42;;;;;;;8.77;4.07;;;;;;;;;;5046374;28;20142;-67
2021/11/14 01:15:10;;;;;;;6.30;3.85;;;;;;;;;;5048911;28;20491;-67
2021/11/14 01:17:39;;;;;;;8.32;3.90;;;;;;;;;;5044603;28;20136;-67
2021/11/14 01:20:11;;;;;;;5.82;3.20;;;;;;;;;;5048936;28;20124;-68
2021/11/14 01:22:40;;;;;;;7.78;4.20;;;;;;;;;;5047289;28;20152;-68
2021/11/14 01:25:09;;;;;;;6.30;3.80;;;;;;;;;;5050669;28;20140;-67
2021/11/14 01:27:38;;;;;;;9.18;4.20;;;;;;;;;;5005356;28;20092;-68
2021/11/14 01:30:07;;;;;;;5.64;2.88;;;;;;;;;;316318;28;10023708;-67
2021/11/14 01:32:36;;;;;;;10.20;4.45;;;;;;;;;;5048037;28;20084;-68
2021/11/14 01:35:04;;;;;;;7.80;3.92;;;;;;;;;;5050033;28;20482;-67
2021/11/14 01:37:34;;;;;;;9.18;4.05;;;;;;;;;;5049201;28;20507;-68
2021/11/14 01:40:03;;;;;;;6.78;3.83;;;;;;;;;;5049783;28;20072;-68
2021/11/14 01:42:32;;;;;;;8.20;3.88;;;;;;;;;;5053170;28;20049;-68
2021/11/14 01:45:00;;;;;;;6.78;3.70;;;;;;;;;;5052296;28;20124;-68
2021/11/14 01:47:28;;;;;;;9.25;3.38;;;;;;;;;;5053629;28;20037;-68
2021/11/14 01:49:57;;;;;;;5.50;3.58;;;;;;;;;;5050257;28;20516;-68
2021/11/14 01:52:28;;;;;;;8.13;3.67;;;;;;;;;;5051709;28;20037;-68
2021/11/14 01:54:58;;;;;;;8.75;4.03;;;;;;;;;;5053064;28;20068;-67
2021/11/14 01:57:26;;;;;;;5.40;3.50;;;;;;;;;;5048053;28;20049;-68
2021/11/14 01:59:55;;;;;;;9.75;4.32;;;;;;;;;;5050817;28;20480;-68
2021/11/14 02:02:23;;;;;;;7.32;3.83;;;;;;;;;;5042011;28;20062;-68
2021/11/14 02:04:52;;;;;;;6.30;3.60;;;;;;;;;;5059841;28;20076;-67
2021/11/14 02:07:20;;;;;;;5.55;3.42;;;;;;;;;;5054655;28;20430;-68
2021/11/14 02:09:48;;;;;;;6.38;3.67;;;;;;;;;;5053490;28;20488;-68
2021/11/14 02:12:19;;;;;;;8.77;3.63;;;;;;;;;;5043756;28;20088;-67
2021/11/14 02:14:47;;;;;;;7.22;3.83;;;;;;;;;;5053723;28;20045;-68
2021/11/14 02:17:15;;;;;;;8.73;3.58;;;;;;;;;;5060754;28;20500;-68
2021/11/14 02:19:49;;;;;;;6.15;3.65;;;;;;;;;;5051021;28;20041;-68
2021/11/14 02:22:17;;;;;;;9.75;3.42;;;;;;;;;;5058857;28;20496;-67
2021/11/14 02:24:46;;;;;;;6.57;3.60;;;;;;;;;;5053999;28;20557;-68
2021/11/14 02:27:15;;;;;;;7.50;3.78;;;;;;;;;;5053092;28;20126;-68
2021/11/14 02:29:43;;;;;;;6.88;3.60;;;;;;;;;;5051086;28;20045;-68
2021/11/14 02:32:12;;;;;;;6.82;3.63;;;;;;;;;;5050718;28;20564;-68
2021/11/14 02:34:40;;;;;;;6.82;3.53;;;;;;;;;;5051097;28;20084;-67
2021/11/14 02:37:10;;;;;;;5.47;3.50;;;;;;;;;;5053121;28;20081;-68
2021/11/14 02:39:38;;;;;;;6.82;3.70;;;;;;;;;;5046352;28;20571;-68
2021/11/14 02:42:07;;;;;;;6.80;4.03;;;;;;;;;;5050267;28;20511;-67
2021/11/14 02:44:36;;;;;;;6.03;3.70;;;;;;;;;;5049418;28;20139;-67
2021/11/14 02:47:04;;;;;;;7.15;3.65;;;;;;;;;;5051259;28;20169;-68
2021/11/14 02:49:33;;;;;;;6.25;3.28;;;;;;;;;;5050506;28;20048;-67
2021/11/14 02:52:01;;;;;;;6.57;3.83;;;;;;;;;;5046415;28;20068;-67
2021/11/14 02:54:31;;;;;;;4.97;3.35;;;;;;;;;;5041449;28;20084;-68
2021/11/14 02:56:59;;;;;;;6.57;3.60;;;;;;;;;;5049318;28;20040;-68
2021/11/14 02:59:27;;;;;;;6.57;3.70;;;;;;;;;;5048121;28;20561;-67
2021/11/14 03:01:56;;;;;;;7.07;3.63;;;;;;;;;;5051946;28;20187;-67
2021/11/14 03:04:26;;;;;;;6.43;3.50;;;;;;;;;;5039642;28;20461;-67
2021/11/14 03:06:55;;;;;;;6.72;3.63;;;;;;;;;;5048683;28;20135;-68
2021/11/14 03:09:25;;;;;;;9.93;3.65;;;;;;;;;;5050362;28;20051;-67
2021/11/14 03:11:55;;;;;;;8.65;4.07;;;;;;;;;;5050371;28;20127;-68
2021/11/14 03:14:23;;;;;;;9.05;4.00;;;;;;;;;;5049630;28;20088;-68
2021/11/14 03:16:52;;;;;;;5.85;3.50;;;;;;;;;;5049784;28;20084;-68
2021/11/14 03:19:20;;;;;;;6.30;3.50;;;;;;;;;;5046367;28;20055;-68
2021/11/14 03:21:49;;;;;;;7.55;3.53;;;;;;;;;;5049572;28;20130;-68
2021/11/14 03:24:18;;;;;;;10.75;4.53;;;;;;;;;;5052156;28;20045;-67
2021/11/14 03:26:46;;;;;;;8.77;4.53;;;;;;;;;;5050690;28;20072;-68
2021/11/14 03:29:16;;;;;;;11.23;4.47;;;;;;;;;;5050382;28;20048;-67
2021/11/14 03:31:46;;;;;;;6.78;4.35;;;;;;;;;;5048440;28;20049;-68
2021/11/14 03:34:14;;;;;;;8.15;4.57;;;;;;;;;;5048536;28;20044;-67
2021/11/14 03:36:43;;;;;;;8.02;3.95;;;;;;;;;;5048115;28;20076;-68
2021/11/14 03:39:12;;;;;;;10.15;5.10;;;;;;;;;;5059078;28;20044;-68
2021/11/14 03:41:42;;;;;;;7.28;4.05;;;;;;;;;;5048256;28;20060;-68
2021/11/14 03:44:11;;;;;;;7.15;4.35;;;;;;;;;;5050134;28;20053;-68
2021/11/14 03:46:40;;;;;;;7.75;4.20;;;;;;;;;;5050579;28;20540;-68
2021/11/14 03:49:09;;;;;;;9.68;5.10;;;;;;;;;;5048245;28;20155;-68
2021/11/14 03:51:37;;;;;;;6.85;4.38;;;;;;;;;;5048356;28;20081;-68
2021/11/14 03:54:05;;;;;;;9.52;5.20;;;;;;;;;;5047860;28;20531;-68
2021/11/14 03:56:34;;;;;;;9.27;5.25;;;;;;;;;;5048761;28;20076;-67
2021/11/14 03:59:03;;;;;;;8.70;4.80;;;;;;;;;;5047142;28;20049;-68
2021/11/14 04:01:31;;;;;;;9.52;5.15;;;;;;;;;;5047730;28;20127;-67
2021/11/14 04:04:01;;;;;;;8.35;4.68;;;;;;;;;;5048546;28;20057;-68
2021/11/14 04:06:30;;;;;;;12.52;5.80;;;;;;;;;;5050074;28;20627;-67
2021/11/14 04:08:59;;;;;;;11.45;4.78;;;;;;;;;;5050178;28;20075;-68
2021/11/14 04:11:28;;;;;;;12.05;5.35;;;;;;;;;;5050548;28;20457;-68
2021/11/14 04:13:56;;;;;;;9.80;5.03;;;;;;;;;;5049881;28;20483;-68
2021/11/14 04:16:24;;;;;;;8.60;4.80;;;;;;;;;;5049252;28;20051;-67
2021/11/14 04:18:53;;;;;;;8.30;5.13;;;;;;;;;;5049739;28;20512;-68
2021/11/14 04:21:22;;;;;;;7.55;4.90;;;;;;;;;;5049707;28;20139;-68
2021/11/14 04:23:51;;;;;;;10.75;5.10;;;;;;;;;;5051531;28;20167;-68
2021/11/14 04:26:20;;;;;;;9.50;5.30;;;;;;;;;;5053082;28;20083;-68
2021/11/14 04:28:49;;;;;;;7.78;4.78;;;;;;;;;;5049011;28;20049;-67
2021/11/14 04:31:17;;;;;;;10.90;5.63;;;;;;;;;;5039108;28;20077;-68
2021/11/14 04:33:46;;;;;;;9.73;5.15;;;;;;;;;;5048169;28;20056;-68
2021/11/14 04:36:14;;;;;;;10.35;4.88;;;;;;;;;;5045947;28;20503;-68
2021/11/14 04:38:44;;;;;;;10.93;5.60;;;;;;;;;;5046522;28;20060;-68
2021/11/14 04:41:12;;;;;;;9.82;5.47;;;;;;;;;;5046730;28;20079;-68
2021/11/14 04:43:40;;;;;;;7.00;4.07;;;;;;;;;;5046051;28;20377;-68
2021/11/14 04:46:09;;;;;;;9.98;5.00;;;;;;;;;;5046602;28;20147;-68
2021/11/14 04:48:37;;;;;;;11.10;5.18;;;;;;;;;;5048258;28;20490;-68
2021/11/14 04:51:05;;;;;;;11.75;5.75;;;;;;;;;;5043242;28;20504;-68
2021/11/14 04:53:34;;;;;;;10.07;4.88;;;;;;;;;;5044086;28;20421;-68
2021/11/14 04:56:03;;;;;;;11.30;5.35;;;;;;;;;;5050465;28;20588;-68
2021/11/14 04:58:32;;;;;;;8.45;4.45;;;;;;;;;;5047900;28;20080;-68
2021/11/14 05:01:00;;;;;;;10.93;4.97;;;;;;;;;;5048740;28;20441;-67
2021/11/14 05:03:29;;;;;;;9.88;5.00;;;;;;;;;;5047789;28;20562;-68
2021/11/14 05:05:58;;;;;;;11.13;5.40;;;;;;;;;;5049957;28;20053;-68
2021/11/14 05:08:26;;;;;;;9.02;5.15;;;;;;;;;;5047189;28;20103;-68
2021/11/14 05:10:54;;;;;;;9.07;4.80;;;;;;;;;;5047467;28;20044;-68
2021/11/14 05:13:24;;;;;;;10.52;5.40;;;;;;;;;;5048505;28;20059;-68
2021/11/14 05:15:52;;;;;;;8.93;4.63;;;;;;;;;;5050804;28;20428;-68
2021/11/14 05:18:21;;;;;;;10.07;5.20;;;;;;;;;;5053494;28;20089;-68
2021/11/14 05:20:49;;;;;;;11.00;5.47;;;;;;;;;;5051101;28;20084;-67
2021/11/14 05:23:17;;;;;;;10.77;5.13;;;;;;;;;;5056239;28;20079;-68
2021/11/14 05:25:46;;;;;;;12.70;5.35;;;;;;;;;;5052957;28;20388;-68
2021/11/14 05:28:15;;;;;;;9.10;5.03;;;;;;;;;;5052329;28;20638;-68
2021/11/14 05:30:44;;;;;;;9.60;5.13;;;;;;;;;;5049700;28;20076;-68
2021/11/14 05:33:15;;;;;;;9.38;4.88;;;;;;;;;;5053418;28;20045;-69
2021/11/14 05:35:44;;;;;;;9.45;5.53;;;;;;;;;;5060389;28;20041;-68
2021/11/14 05:38:12;;;;;;;10.98;5.78;;;;;;;;;;5055262;28;20049;-68
2021/11/14 05:40:41;;;;;;;10.30;5.65;;;;;;;;;;5056960;28;20064;-67
2021/11/14 05:43:31;;;;;;;;;;;;;;;;;;;;;
2021/11/14 05:46:31;;;;;;;12.15;7.20;;;;;;;;;;5054473;28;20049;-68
2021/11/14 05:49:09;;;;;;;18.45;8.65;;;;;;;;;;5054099;28;20404;-68
2021/11/14 05:51:45;;;;;;;18.25;9.00;;;;;;;;;;5061837;28;20044;-68
2021/11/14 05:54:15;;;;;;;18.85;8.40;;;;;;;;;;5058255;28;20036;-68
2021/11/14 05:56:44;;;;;;;17.08;8.93;;;;;;;;;;5054322;28;20345;-68
2021/11/14 05:59:18;;;;;;;14.75;7.32;;;;;;;;;;5049700;28;20060;-68
2021/11/14 06:01:54;;;;;;;15.10;8.02;;;;;;;;;;5053525;28;20049;-68
2021/11/14 06:04:26;;;;;;;17.25;8.50;;;;;;;;;;5054048;28;20055;-68
2021/11/14 06:06:54;;;;;;;12.52;7.10;;;;;;;;;;5051083;28;20135;-68
2021/11/14 06:09:23;;;;;;;14.52;8.05;;;;;;;;;;5049113;28;20335;-68
2021/11/14 06:11:51;;;;;;;16.75;7.40;;;;;;;;;;5055146;28;20425;-69
2021/11/14 06:14:20;;;;;;;16.50;7.72;;;;;;;;;;5050041;28;20041;-68
2021/11/14 06:16:49;;;;;;;14.55;8.10;;;;;;;;;;5051888;28;20063;-68
2021/11/14 06:19:18;;;;;;;19.58;8.50;;;;;;;;;;5045105;28;20076;-68
2021/11/14 06:21:46;;;;;;;15.70;8.20;;;;;;;;;;5054472;28;20382;-67
2021/11/14 06:24:18;;;;;;;13.20;7.30;;;;;;;;;;5046521;28;20129;-68
2021/11/14 06:26:46;;;;;;;16.45;7.97;;;;;;;;;;5055120;28;20558;-68
2021/11/14 06:29:15;;;;;;;15.60;7.97;;;;;;;;;;5047934;28;20143;-68
2021/11/14 06:31:47;;;;;;;16.95;8.20;;;;;;;;;;5047577;28;20158;-68
2021/11/14 06:34:17;;;;;;;13.13;7.43;;;;;;;;;;5047180;28;20099;-68
2021/11/14 06:36:46;;;;;;;17.63;8.38;;;;;;;;;;5049989;28;20171;-68
2021/11/14 06:39:20;;;;;;;17.10;9.07;;;;;;;;;;5051215;28;20231;-69
2021/11/14 06:41:48;;;;;;;16.90;8.05;;;;;;;;;;5054209;28;20045;-68
2021/11/14 06:44:18;;;;;;;19.05;9.07;;;;;;;;;;5052152;28;20110;-68
2021/11/14 06:46:48;;;;;;;18.00;8.10;;;;;;;;;;5050866;28;20461;-68
2021/11/14 06:49:18;;;;;;;17.98;9.50;;;;;;;;;;5053925;28;20080;-68
2021/11/14 06:51:47;;;;;;;18.17;8.55;;;;;;;;;;5050284;28;20140;-68
2021/11/14 06:54:16;;;;;;;17.45;8.45;;;;;;;;;;5047826;28;20056;-68
2021/11/14 06:56:45;;;;;;;16.88;8.90;;;;;;;;;;5049355;28;20048;-68
2021/11/14 06:59:14;;;;;;;20.95;9.85;;;;;;;;;;5052811;28;20056;-68
2021/11/14 07:01:45;;;;;;;21.92;8.98;;;;;;;;;;5048765;28;20053;-68
2021/11/14 07:04:23;;;;;;;19.05;9.40;;;;;;;;;;5051899;28;20045;-68
2021/11/14 07:06:52;;;;;;;17.67;8.73;;;;;;;;;;5049412;28;20049;-68
2021/11/14 07:09:21;;;;;;;21.42;9.60;;;;;;;;;;5050170;28;20083;-68
2021/11/14 07:11:53;;;;;;;22.25;10.38;;;;;;;;;;5054501;28;20076;-68
2021/11/14 07:14:22;;;;;;;22.08;9.45;;;;;;;;;;5052843;28;20045;-68
2021/11/14 07:16:50;;;;;;;21.88;10.48;;;;;;;;;;5051445;28;20368;-68
2021/11/14 07:19:19;;;;;;;22.58;10.23;;;;;;;;;;5053094;28;20049;-68
2021/11/14 07:21:48;;;;;;;22.17;9.45;;;;;;;;;;5046094;28;20114;-68
2021/11/14 07:24:17;;;;;;;24.80;10.32;;;;;;;;;;5043343;28;20072;-68
2021/11/14 07:26:46;;;;;;;19.65;9.93;;;;;;;;;;5045119;28;20056;-69
2021/11/14 07:29:14;;;;;;;19.52;9.82;;;;;;;;;;5032770;28;20439;-68
2021/11/14 07:31:42;;;;;;;21.38;9.88;;;;;;;;;;5044314;28;20750;-68
2021/11/14 07:34:11;;;;;;;24.80;10.32;;;;;;;;;;5044853;28;20059;-68
2021/11/14 07:36:39;;;;;;;21.65;10.15;;;;;;;;;;5046180;28;20135;-68
2021/11/14 07:39:09;;;;;;;23.10;9.57;;;;;;;;;;5046629;28;20128;-68
2021/11/14 07:41:37;;;;;;;21.10;10.60;;;;;;;;;;5046190;28;20422;-68
2021/11/14 07:44:06;;;;;;;20.40;10.23;;;;;;;;;;5047124;28;20045;-69
2021/11/14 07:46:34;;;;;;;24.10;10.43;;;;;;;;;;5041046;28;20494;-68
2021/11/14 07:49:02;;;;;;;23.48;10.95;;;;;;;;;;5046271;28;20052;-68
2021/11/14 07:51:31;;;;;;;23.58;10.38;;;;;;;;;;5043878;28;20529;-68
2021/11/14 07:54:00;;;;;;;27.20;11.55;;;;;;;;;;5045189;28;20404;-68
2021/11/14 07:56:30;;;;;;;26.38;11.68;;;;;;;;;;5044874;28;20044;-68
2021/11/14 07:58:58;;;;;;;31.23;12.32;;;;;;;;;;5042760;28;20134;-68
2021/11/14 08:01:27;;;;;;;31.92;11.30;;;;;;;;;;5048529;28;20415;-69
2021/11/14 08:03:56;;;;;;;25.50;12.10;;;;;;;;;;5046126;28;20118;-68
2021/11/14 08:06:24;;;;;;;30.42;13.40;;;;;;;;;;5047199;28;20434;-68
2021/11/14 08:08:52;;;;;;;30.60;11.80;;;;;;;;;;5047971;28;20060;-69
2021/11/14 08:11:21;;;;;;;28.40;11.77;;;;;;;;;;5048013;28;20524;-68
2021/11/14 08:13:51;;;;;;;27.17;11.95;;;;;;;;;;5058210;28;20049;-68
2021/11/14 08:16:21;;;;;;;30.02;12.90;;;;;;;;;;5052762;28;20045;-68
2021/11/14 08:18:50;;;;;;;33.65;12.68;;;;;;;;;;5047924;28;20099;-68
2021/11/14 08:21:19;;;;;;;30.17;12.45;;;;;;;;;;5049787;28;20092;-68
2021/11/14 08:23:47;;;;;;;32.22;13.32;;;;;;;;;;5049023;28;20151;-68
2021/11/14 08:26:16;;;;;;;34.97;13.02;;;;;;;;;;5053389;28;20086;-69
2021/11/14 08:28:44;;;;;;;36.63;14.82;;;;;;;;;;5049252;28;20088;-68
2021/11/14 08:31:20;;;;;;;33.53;13.93;;;;;;;;;;5048479;28;20106;-68
2021/11/14 08:33:49;;;;;;;32.05;12.85;;;;;;;;;;5033422;28;20399;-68
2021/11/14 08:36:17;;;;;;;34.33;13.93;;;;;;;;;;5057792;28;20487;-69
2021/11/14 08:38:47;;;;;;;30.90;13.50;;;;;;;;;;5053986;28;20087;-68
2021/11/14 08:41:15;;;;;;;37.58;13.13;;;;;;;;;;5046972;28;20439;-68
2021/11/14 08:43:44;;;;;;;34.85;13.73;;;;;;;;;;5058199;28;20053;-69
2021/11/14 08:46:13;;;;;;;30.73;12.35;;;;;;;;;;5040602;28;20141;-68
2021/11/14 08:48:42;;;;;;;31.08;13.43;;;;;;;;;;5052636;28;20079;-68
2021/11/14 08:51:11;;;;;;;31.92;14.20;;;;;;;;;;5047783;28;20072;-68
2021/11/14 08:53:40;;;;;;;32.75;12.68;;;;;;;;;;5050438;28;20052;-68
2021/11/14 08:56:08;;;;;;;30.85;12.93;;;;;;;;;;5049705;28;20055;-69
2021/11/14 08:58:37;;;;;;;32.35;12.50;;;;;;;;;;5049565;28;20060;-68
2021/11/14 09:01:07;;;;;;;31.17;13.65;;;;;;;;;;5053149;28;20045;-68
2021/11/14 09:03:36;;;;;;;31.70;12.75;;;;;;;;;;5051217;28;20073;-68
2021/11/14 09:06:06;;;;;;;25.58;12.20;;;;;;;;;;5052100;28;20051;-68
2021/11/14 09:08:35;;;;;;;26.55;11.32;;;;;;;;;;5053460;28;20037;-68
2021/11/14 09:11:03;;;;;;;27.95;12.25;;;;;;;;;;5053026;28;20053;-68
2021/11/14 09:13:32;;;;;;;28.73;11.77;;;;;;;;;;5056473;28;20109;-68
2021/11/14 09:16:02;;;;;;;33.92;11.32;;;;;;;;;;5056688;28;20063;-68
2021/11/14 09:18:31;;;;;;;25.30;11.48;;;;;;;;;;5052044;28;20067;-68
2021/11/14 09:21:00;;;;;;;27.80;11.57;;;;;;;;;;5051077;28;20049;-68
2021/11/14 09:23:30;;;;;;;29.35;12.32;;;;;;;;;;5061089;28;20037;-68
2021/11/14 09:26:00;;;;;;;26.35;11.23;;;;;;;;;;5066436;28;20068;-68
2021/11/14 09:28:29;;;;;;;27.42;11.13;;;;;;;;;;5056369;28;20072;-68
2021/11/14 09:30:58;;;;;;;26.70;10.95;;;;;;;;;;5051992;28;20048;-68
2021/11/14 09:33:28;;;;;;;27.98;11.80;;;;;;;;;;5054200;28;20084;-68
2021/11/14 09:35:57;;;;;;;25.10;10.85;;;;;;;;;;5050652;28;20535;-68
2021/11/14 09:38:26;;;;;;;25.00;10.73;;;;;;;;;;5052537;28;20451;-68
2021/11/14 09:40:57;;;;;;;25.48;11.30;;;;;;;;;;5051642;28;20140;-68
2021/11/14 09:43:28;;;;;;;25.23;10.85;;;;;;;;;;5051800;28;20055;-68
2021/11/14 09:45:57;;;;;;;26.10;10.43;;;;;;;;;;5052290;28;20048;-68
2021/11/14 09:48:25;;;;;;;26.13;11.55;;;;;;;;;;5051201;28;20051;-68
2021/11/14 09:50:55;;;;;;;31.00;11.32;;;;;;;;;;5047180;28;20504;-68
2021/11/14 09:53:27;;;;;;;27.63;10.98;;;;;;;;;;5051455;28;20096;-68
2021/11/14 09:55:57;;;;;;;21.98;9.45;;;;;;;;;;5052638;28;20489;-68
2021/11/14 09:58:26;;;;;;;26.10;9.60;;;;;;;;;;5052019;28;20447;-68
2021/11/14 10:00:56;;;;;;;23.30;10.50;;;;;;;;;;5053181;28;20045;-68
2021/11/14 10:03:25;;;;;;;25.25;10.18;;;;;;;;;;5053551;28;20055;-68
2021/11/14 10:05:54;;;;;;;25.20;9.93;;;;;;;;;;5053758;28;20110;-68
2021/11/14 10:08:24;;;;;;;23.55;9.45;;;;;;;;;;5055218;28;20041;-68
2021/11/14 10:10:53;;;;;;;19.50;9.10;;;;;;;;;;5050918;28;20076;-68
2021/11/14 10:13:24;;;;;;;30.15;10.52;;;;;;;;;;5052926;28;20400;-68
2021/11/14 10:15:58;;;;;;;20.95;8.70;;;;;;;;;;5052349;28;20041;-68
2021/11/14 10:18:27;;;;;;;26.30;9.40;;;;;;;;;;5056508;28;20060;-68
2021/11/14 10:20:58;;;;;;;25.10;10.65;;;;;;;;;;5062628;28;20049;-68
2021/11/14 10:23:28;;;;;;;23.75;9.23;;;;;;;;;;5054115;28;20056;-68
2021/11/14 10:25:58;;;;;;;25.33;9.88;;;;;;;;;;5050455;28;20080;-68
2021/11/14 10:28:29;;;;;;;24.85;8.85;;;;;;;;;;5049716;28;20045;-68
2021/11/14 10:30:58;;;;;;;22.48;9.18;;;;;;;;;;5050008;28;20049;-68
2021/11/14 10:33:27;;;;;;;21.02;9.25;;;;;;;;;;5048531;28;20510;-68
2021/11/14 10:36:00;;;;;;;25.67;10.20;;;;;;;;;;5051177;28;20048;-68
2021/11/14 10:38:29;;;;;;;19.20;9.00;;;;;;;;;;5051051;28;20568;-68
2021/11/14 10:41:00;;;;;;;15.70;7.90;;;;;;;;;;5050155;28;20506;-69
2021/11/14 10:43:31;;;;;;;25.45;10.30;;;;;;;;;;5055110;28;20061;-68
2021/11/14 10:46:01;;;;;;;19.88;8.52;;;;;;;;;;5049338;28;20052;-68
2021/11/14 10:48:31;;;;;;;22.08;8.82;;;;;;;;;;5058666;28;20048;-68
2021/11/14 10:51:00;;;;;;;19.95;9.23;;;;;;;;;;5045167;28;20083;-68
2021/11/14 10:53:30;;;;;;;20.45;8.63;;;;;;;;;;5048166;28;20048;-68
2021/11/14 10:55:59;;;;;;;21.88;8.35;;;;;;;;;;5055071;28;20140;-68
2021/11/14 10:58:29;;;;;;;26.95;9.32;;;;;;;;;;5056029;28;20589;-68
2021/11/14 11:01:02;;;;;;;25.33;8.85;;;;;;;;;;5052818;28;20179;-68
2021/11/14 11:03:34;;;;;;;19.73;8.23;;;;;;;;;;5048425;28;20099;-68
2021/11/14 11:06:03;;;;;;;20.77;7.97;;;;;;;;;;5049709;28;20081;-68
2021/11/14 11:08:32;;;;;;;23.95;8.98;;;;;;;;;;5049830;28;20048;-67
2021/11/14 11:11:08;;;;;;;24.15;9.77;;;;;;;;;;5048012;28;20095;-68
2021/11/14 11:13:38;;;;;;;20.30;8.88;;;;;;;;;;5047905;28;20077;-68
2021/11/14 11:16:09;;;;;;;21.48;8.43;;;;;;;;;;5044958;28;20041;-68
2021/11/14 11:18:38;;;;;;;27.65;9.98;;;;;;;;;;5043343;28;20096;-68
2021/11/14 11:21:08;;;;;;;19.40;8.68;;;;;;;;;;5048201;28;20056;-68
2021/11/14 11:23:40;;;;;;;24.63;8.77;;;;;;;;;;5049391;28;20060;-68
2021/11/14 11:26:10;;;;;;;19.58;8.70;;;;;;;;;;5058234;28;20052;-68
2021/11/14 11:28:40;;;;;;;20.92;9.00;;;;;;;;;;5050631;28;20049;-68
2021/11/14 11:31:11;;;;;;;18.48;8.18;;;;;;;;;;5048549;28;20048;-68
2021/11/14 11:33:41;;;;;;;19.92;8.13;;;;;;;;;;5049293;28;20063;-69
2021/11/14 11:36:11;;;;;;;19.17;8.55;;;;;;;;;;5050520;28;20048;-68
2021/11/14 11:38:42;;;;;;;21.10;8.68;;;;;;;;;;5046735;28;20099;-68
2021/11/14 11:41:11;;;;;;;23.27;8.65;;;;;;;;;;5047108;28;20052;-68
2021/11/14 11:43:40;;;;;;;19.75;8.27;;;;;;;;;;5043701;28;20070;-68
2021/11/14 11:46:11;;;;;;;19.65;8.95;;;;;;;;;;5048985;28;20044;-68
2021/11/14 11:48:41;;;;;;;20.02;7.95;;;;;;;;;;5054689;28;20525;-68
2021/11/14 11:51:12;;;;;;;21.73;8.68;;;;;;;;;;5047107;28;20049;-68
2021/11/14 11:53:41;;;;;;;24.95;9.43;;;;;;;;;;5042525;28;20045;-68
2021/11/14 11:56:11;;;;;;;19.50;9.10;;;;;;;;;;5046196;28;20048;-68
2021/11/14 11:58:43;;;;;;;22.08;8.85;;;;;;;;;;5045918;28;20049;-68
2021/11/14 12:01:24;;;;;;;21.58;7.85;;;;;;;;;;5048198;28;20045;-69
2021/11/14 12:03:53;;;;;;;25.05;9.25;;;;;;;;;;5045057;28;20160;-68
2021/11/14 12:06:24;;;;;;;21.83;8.50;;;;;;;;;;5044357;28;20570;-68
2021/11/14 12:08:54;;;;;;;20.88;8.57;;;;;;;;;;5046544;28;20114;-68
2021/11/14 12:11:33;;;;;;;19.42;8.02;;;;;;;;;;5046429;28;20505;-69
2021/11/14 12:14:03;;;;;;;20.60;7.88;;;;;;;;;;5047952;28;20092;-68
2021/11/14 12:16:34;;;;;;;20.08;7.53;;;;;;;;;;5054978;28;20049;-68
2021/11/14 12:19:03;;;;;;;21.60;8.38;;;;;;;;;;5050688;28;20096;-69
2021/11/14 12:21:32;;;;;;;21.15;9.15;;;;;;;;;;5045540;28;20061;-68
2021/11/14 12:24:04;;;;;;;20.35;8.43;;;;;;;;;;5047294;28;20506;-65
2021/11/14 12:26:34;;;;;;;21.35;7.30;;;;;;;;;;5057248;28;20111;-64
2021/11/14 12:29:06;;;;;;;16.33;6.40;;;;;;;;;;5049886;28;20049;-65
2021/11/14 12:31:46;;;;;;;22.67;8.30;;;;;;;;;;5053530;28;20060;-64
2021/11/14 12:34:21;;;;;;;15.57;7.28;;;;;;;;;;5050650;28;20055;-65
2021/11/14 12:36:51;;;;;;;15.23;6.60;;;;;;;;;;5049783;28;20500;-65
2021/11/14 12:39:21;;;;;;;17.92;7.78;;;;;;;;;;5050400;28;20411;-64
2021/11/14 12:41:53;;;;;;;18.92;7.72;;;;;;;;;;5049828;28;20439;-65
2021/11/14 12:44:30;;;;;;;17.88;6.75;;;;;;;;;;5049389;28;20065;-65
2021/11/14 12:47:01;;;;;;;16.55;6.68;;;;;;;;;;5048008;28;20041;-65
2021/11/14 12:49:37;;;;;;;18.83;7.50;;;;;;;;;;5054521;28;20070;-65
2021/11/14 12:52:08;;;;;;;17.02;7.00;;;;;;;;;;5030042;28;20045;-64
2021/11/14 12:54:50;;;;;;;16.55;7.15;;;;;;;;;;5047206;28;20076;-65
2021/11/14 12:57:18;;;;;;;16.27;7.35;;;;;;;;;;5035405;28;20081;-65
2021/11/14 12:59:49;;;;;;;15.68;7.00;;;;;;;;;;5049194;28;20500;-65
2021/11/14 13:02:20;;;;;;;20.80;7.93;;;;;;;;;;5046402;28;20045;-65
2021/11/14 13:04:50;;;;;;;17.38;7.25;;;;;;;;;;5049567;28;20049;-65
2021/11/14 13:07:26;;;;;;;21.02;7.85;;;;;;;;;;5060861;28;20055;-65
2021/11/14 13:09:55;;;;;;;17.65;6.63;;;;;;;;;;5045507;28;20067;-64
2021/11/14 13:12:25;;;;;;;17.45;7.35;;;;;;;;;;5056005;28;20055;-64
2021/11/14 13:14:58;;;;;;;13.82;6.68;;;;;;;;;;5047004;28;20040;-65
2021/11/14 13:17:29;;;;;;;17.40;6.80;;;;;;;;;;5049124;28;20064;-65
2021/11/14 13:19:58;;;;;;;18.50;6.97;;;;;;;;;;5049512;28;20466;-65
2021/11/14 13:22:29;;;;;;;15.68;6.38;;;;;;;;;;5043471;28;20049;-65
2021/11/14 13:25:02;;;;;;;19.00;7.30;;;;;;;;;;5046636;28;20045;-66
2021/11/14 13:27:32;;;;;;;14.43;6.45;;;;;;;;;;5048111;28;20462;-64
2021/11/14 13:30:03;;;;;;;12.80;6.00;;;;;;;;;;5044607;28;20057;-64
2021/11/14 13:32:34;;;;;;;20.55;8.13;;;;;;;;;;5047418;28;20214;-66
2021/11/14 13:35:03;;;;;;;15.15;6.72;;;;;;;;;;5048171;28;20045;-64
2021/11/14 13:37:35;;;;;;;16.30;6.88;;;;;;;;;;5050390;28;20073;-65
2021/11/14 13:40:06;;;;;;;13.00;6.85;;;;;;;;;;5051700;28;20041;-64
2021/11/14 13:42:36;;;;;;;14.52;7.10;;;;;;;;;;5052167;28;20037;-65
2021/11/14 13:45:07;;;;;;;18.83;7.45;;;;;;;;;;5052000;28;20103;-66
2021/11/14 13:47:39;;;;;;;16.75;6.60;;;;;;;;;;5052213;28;20053;-65
2021/11/14 13:50:10;;;;;;;15.02;6.40;;;;;;;;;;5050270;28;20053;-64
2021/11/14 13:52:39;;;;;;;18.23;7.57;;;;;;;;;;5044148;28;20063;-64
2021/11/14 13:55:09;;;;;;;14.32;6.82;;;;;;;;;;5046506;28;20092;-64
2021/11/14 13:57:39;;;;;;;14.85;6.45;;;;;;;;;;5051148;28;20049;-66
2021/11/14 14:00:10;;;;;;;17.70;7.03;;;;;;;;;;5052399;28;20065;-64
2021/11/14 14:02:41;;;;;;;16.55;6.30;;;;;;;;;;5051734;28;20530;-65
2021/11/14 14:05:11;;;;;;;16.88;6.13;;;;;;;;;;5051362;28;20051;-65
2021/11/14 14:07:42;;;;;;;16.20;7.20;;;;;;;;;;5051754;28;20111;-64
2021/11/14 14:10:12;;;;;;;16.15;6.40;;;;;;;;;;5052298;28;20041;-64
2021/11/14 14:12:42;;;;;;;18.05;7.70;;;;;;;;;;5053555;28;20079;-64
2021/11/14 14:15:12;;;;;;;16.88;7.40;;;;;;;;;;5051819;28;20115;-64
2021/11/14 14:17:43;;;;;;;16.08;6.47;;;;;;;;;;5047843;28;20552;-65
2021/11/14 14:20:12;;;;;;;16.25;6.97;;;;;;;;;;5041187;28;20127;-64
2021/11/14 14:22:43;;;;;;;14.48;6.70;;;;;;;;;;5049814;28;20056;-64
2021/11/14 14:25:14;;;;;;;13.75;6.22;;;;;;;;;;5051660;28;20052;-65
2021/11/14 14:27:44;;;;;;;19.73;8.40;;;;;;;;;;5051672;28;20049;-65
2021/11/14 14:30:14;;;;;;;19.80;8.15;;;;;;;;;;5050882;28;20053;-66
2021/11/14 14:32:52;;;;;;;18.70;7.25;;;;;;;;;;5050980;28;20049;-65
2021/11/14 14:35:22;;;;;;;14.68;7.15;;;;;;;;;;5052224;28;20085;-64
2021/11/14 14:37:52;;;;;;;16.83;7.32;;;;;;;;;;5050273;28;20052;-64
2021/11/14 14:40:31;;;;;;;21.75;8.38;;;;;;;;;;5048247;28;20041;-65
2021/11/14 14:43:00;;;;;;;19.40;7.50;;;;;;;;;;5047902;28;20047;-67
2021/11/14 14:45:32;;;;;;;17.17;7.95;;;;;;;;;;5048591;28;20517;-64
2021/11/14 14:48:04;;;;;;;19.48;7.97;;;;;;;;;;5047253;28;20095;-65